Time;durP1;ratioP1;P1;durP2;ratioP2;P2;SDS_P1;SDS_P2;PMS_P1;PMS_P2;Temp;Humidity;BMP_temperature;BMP_pressure;BME280_temperature;BME280_humidity;BME280_pressure;Samples;Min_cycle;Max_cycle;Signal;HPM_P1;HPM_P2
2024/02/07 00:01:59;;;;;;;7.90;7.60;;;20.50;55.30;;;;;;5051774;28;21029;-66
2024/02/07 00:04:26;;;;;;;8.00;7.70;;;20.50;55.30;;;;;;5043562;28;20461;-66
2024/02/07 00:06:53;;;;;;;7.77;7.57;;;20.50;55.40;;;;;;5044719;28;20475;-66
2024/02/07 00:09:19;;;;;;;8.33;8.03;;;20.50;55.40;;;;;;5046903;28;20463;-66
2024/02/07 00:11:46;;;;;;;8.33;8.13;;;20.50;55.40;;;;;;5046400;28;20543;-66
2024/02/07 00:14:13;;;;;;;8.50;8.23;;;20.50;55.50;;;;;;5039419;28;21001;-66
2024/02/07 00:16:41;;;;;;;8.70;8.33;;;20.50;55.50;;;;;;5047386;28;20453;-66
2024/02/07 00:19:08;;;;;;;7.97;7.77;;;20.40;55.50;;;;;;5051323;28;20484;-66
2024/02/07 00:21:35;;;;;;;7.97;7.77;;;20.40;55.60;;;;;;5046742;28;20463;-66
2024/02/07 00:24:02;;;;;;;8.00;7.80;;;20.40;55.60;;;;;;5046787;28;20471;-66
2024/02/07 00:26:29;;;;;;;7.80;7.60;;;20.40;55.60;;;;;;5046587;28;20472;-66
2024/02/07 00:28:56;;;;;;;9.07;8.87;;;20.40;55.60;;;;;;5044798;28;20811;-66
2024/02/07 00:31:23;;;;;;;8.23;8.03;;;20.50;55.70;;;;;;5046235;28;20495;-66
2024/02/07 00:33:51;;;;;;;8.57;8.17;;;20.40;55.70;;;;;;5051200;28;20472;-66
2024/02/07 00:36:18;;;;;;;8.03;7.73;;;20.40;55.80;;;;;;5047373;28;20511;-66
2024/02/07 00:38:45;;;;;;;8.30;8.00;;;20.50;55.90;;;;;;5046138;28;20476;-66
2024/02/07 00:41:20;;;;;;;8.43;8.13;;;20.40;55.80;;;;;;5042700;28;20499;-66
2024/02/07 00:43:47;;;;;;;8.00;7.80;;;20.40;55.90;;;;;;5043208;28;20447;-66
2024/02/07 00:46:14;;;;;;;8.20;7.90;;;20.50;56.00;;;;;;5046141;28;20465;-66
2024/02/07 00:48:41;;;;;;;8.80;8.50;;;20.40;55.90;;;;;;5046157;28;20472;-66
2024/02/07 00:51:10;;;;;;;8.07;7.87;;;20.40;55.90;;;;;;5045859;28;20897;-66
2024/02/07 00:53:36;;;;;;;8.37;8.00;;;20.40;55.80;;;;;;5050464;28;20959;-66
2024/02/07 00:56:04;;;;;;;8.20;8.00;;;20.40;55.90;;;;;;5043360;28;20479;-66
2024/02/07 00:58:31;;;;;;;9.20;8.80;;;20.40;56.00;;;;;;5041532;28;20448;-65
2024/02/07 01:00:58;;;;;;;9.50;9.00;;;20.40;56.00;;;;;;5050617;28;20479;-65
2024/02/07 01:03:25;;;;;;;10.30;9.77;;;20.40;56.00;;;;;;5042882;28;20456;-65
2024/02/07 01:05:52;;;;;;;9.17;8.87;;;20.40;56.10;;;;;;5045678;28;20932;-65
2024/02/07 01:08:20;;;;;;;8.33;8.13;;;20.40;56.10;;;;;;5045712;28;20472;-66
2024/02/07 01:10:47;;;;;;;8.60;8.37;;;20.40;56.70;;;;;;5045499;28;20854;-65
2024/02/07 01:13:14;;;;;;;8.37;8.07;;;20.40;56.20;;;;;;5040713;28;20470;-65
2024/02/07 01:15:41;;;;;;;8.20;7.80;;;20.30;56.10;;;;;;5042481;28;21018;-66
2024/02/07 01:18:08;;;;;;;8.33;8.13;;;20.40;56.20;;;;;;5050354;28;20445;-66
2024/02/07 01:20:35;;;;;;;9.57;9.17;;;20.40;56.20;;;;;;5048820;28;20455;-66
2024/02/07 01:23:02;;;;;;;9.00;8.80;;;20.40;56.20;;;;;;5039958;28;20493;-66
2024/02/07 01:25:31;;;;;;;8.47;8.27;;;20.30;56.10;;;;;;5047828;28;20472;-66
2024/02/07 01:27:57;;;;;;;9.53;9.27;;;20.30;56.10;;;;;;5043368;28;20948;-66
2024/02/07 01:30:24;;;;;;;8.67;8.47;;;20.40;56.30;;;;;;5045536;28;20885;-66
2024/02/07 01:32:51;;;;;;;8.70;8.40;;;20.30;56.20;;;;;;5039482;28;20465;-65
2024/02/07 01:35:18;;;;;;;8.80;8.50;;;20.30;56.30;;;;;;5049143;28;20484;-65
2024/02/07 01:37:46;;;;;;;9.83;9.57;;;20.30;56.30;;;;;;5042016;28;20480;-65
2024/02/07 01:40:13;;;;;;;8.83;8.63;;;20.30;56.40;;;;;;5045257;28;20444;-66
2024/02/07 01:42:42;;;;;;;8.73;8.30;;;20.30;56.40;;;;;;5041466;28;20534;-66
2024/02/07 01:45:23;;;;;;;8.53;8.33;;;20.30;56.40;;;;;;5070336;28;20440;-66
2024/02/07 01:47:51;;;;;;;7.97;7.77;;;20.30;56.90;;;;;;5062872;28;20456;-66
2024/02/07 01:50:19;;;;;;;8.70;8.50;;;20.30;56.40;;;;;;5054488;28;20444;-65
2024/02/07 01:52:46;;;;;;;8.53;8.23;;;20.30;56.50;;;;;;5043165;28;20493;-65
2024/02/07 01:55:14;;;;;;;7.50;7.30;;;20.30;56.50;;;;;;5033397;28;20951;-66
2024/02/07 01:57:43;;;;;;;7.90;7.70;;;20.30;56.60;;;;;;5033490;28;20473;-65
2024/02/07 02:00:11;;;;;;;7.53;7.33;;;20.30;56.60;;;;;;5033862;28;20448;-65
2024/02/07 02:02:39;;;;;;;8.10;7.90;;;20.30;56.50;;;;;;5041944;28;20484;-65
2024/02/07 02:05:06;;;;;;;8.83;8.50;;;20.30;56.60;;;;;;5053092;28;20479;-65
2024/02/07 02:07:33;;;;;;;8.13;7.87;;;20.30;56.60;;;;;;5053148;28;20475;-65
2024/02/07 02:10:00;;;;;;;8.00;7.80;;;20.30;56.60;;;;;;5052066;28;20911;-65
2024/02/07 02:12:29;;;;;;;7.93;7.63;;;20.30;56.60;;;;;;5052535;28;20499;-65
2024/02/07 02:14:57;;;;;;;7.90;7.70;;;20.30;56.70;;;;;;5052846;28;20476;-65
2024/02/07 02:17:24;;;;;;;8.63;8.13;;;20.30;56.70;;;;;;5053180;28;20437;-65
2024/02/07 02:19:51;;;;;;;7.73;7.53;;;20.30;56.70;;;;;;5052996;28;20467;-66
2024/02/07 02:22:34;;;;;;;7.83;7.63;;;20.30;56.70;;;;;;5033731;28;20493;-65
2024/02/07 02:25:20;;;;;;;7.97;7.77;;;20.30;56.70;;;;;;5034147;28;20499;-66
2024/02/07 02:28:07;;;;;;;8.30;8.00;;;20.30;56.70;;;;;;5033023;28;20469;-65
2024/02/07 02:30:47;;;;;;;8.47;8.27;;;20.30;56.80;;;;;;5036460;28;20444;-65
2024/02/07 02:33:18;;;;;;;8.00;7.70;;;20.30;56.80;;;;;;5052443;28;20456;-65
2024/02/07 02:35:46;;;;;;;8.00;7.80;;;20.30;56.80;;;;;;5052521;28;20476;-65
2024/02/07 02:38:13;;;;;;;8.80;8.40;;;20.30;56.80;;;;;;5052743;28;20874;-65
2024/02/07 02:40:40;;;;;;;8.57;8.37;;;20.30;56.90;;;;;;5047579;28;20472;-66
2024/02/07 02:43:09;;;;;;;8.13;7.93;;;20.30;57.00;;;;;;5032291;28;20991;-65
2024/02/07 02:45:38;;;;;;;8.70;8.30;;;20.30;57.50;;;;;;5032492;28;20437;-65
2024/02/07 02:48:06;;;;;;;8.07;7.87;;;20.30;57.00;;;;;;5032603;28;20453;-66
2024/02/07 02:50:34;;;;;;;7.80;7.60;;;20.30;56.90;;;;;;5035600;28;20448;-65
2024/02/07 02:53:01;;;;;;;8.77;8.50;;;20.30;57.50;;;;;;5052052;28;20995;-65
2024/02/07 02:55:27;;;;;;;8.33;8.03;;;20.20;56.90;;;;;;5052371;28;20480;-65
2024/02/07 02:57:58;;;;;;;7.60;7.40;;;20.20;56.90;;;;;;5052173;28;20467;-66
2024/02/07 03:00:26;;;;;;;7.90;7.70;;;20.20;57.00;;;;;;5049873;28;20439;-65
2024/02/07 03:02:56;;;;;;;7.70;7.50;;;20.30;57.00;;;;;;5031983;28;20903;-65
2024/02/07 03:05:45;;;;;;;7.60;7.40;;;20.20;57.00;;;;;;5032271;28;20991;-65
2024/02/07 03:08:21;;;;;;;8.17;7.87;;;20.30;57.10;;;;;;5032056;28;20443;-66
2024/02/07 03:10:49;;;;;;;7.80;7.70;;;20.20;57.10;;;;;;5036906;28;20444;-65
2024/02/07 03:13:16;;;;;;;8.10;7.90;;;20.20;57.10;;;;;;5052041;28;20558;-65
2024/02/07 03:15:43;;;;;;;8.50;8.13;;;20.20;57.10;;;;;;5051982;28;20592;-65
2024/02/07 03:18:11;;;;;;;8.10;7.80;;;20.20;57.10;;;;;;5052036;28;20931;-66
2024/02/07 03:20:41;;;;;;;7.87;7.67;;;20.20;57.70;;;;;;5047563;28;20531;-66
2024/02/07 03:23:08;;;;;;;9.03;8.17;;;20.20;57.10;;;;;;5031853;28;20483;-65
2024/02/07 03:25:36;;;;;;;8.40;8.20;;;20.20;57.10;;;;;;5044658;28;20456;-65
2024/02/07 03:28:10;;;;;;;8.40;8.20;;;20.20;57.10;;;;;;5043808;28;20476;-65
2024/02/07 03:30:37;;;;;;;8.20;8.00;;;20.20;57.10;;;;;;5048537;28;20460;-65
2024/02/07 03:33:04;;;;;;;8.50;8.20;;;20.20;57.10;;;;;;5051595;28;20522;-65
2024/02/07 03:35:32;;;;;;;10.77;10.37;;;20.30;57.20;;;;;;5051745;28;20511;-65
2024/02/07 03:37:59;;;;;;;8.60;8.30;;;20.20;57.20;;;;;;5051648;28;20475;-65
2024/02/07 03:40:26;;;;;;;9.40;9.00;;;20.20;57.30;;;;;;5036293;28;20557;-65
2024/02/07 03:42:53;;;;;;;9.00;8.70;;;20.20;57.30;;;;;;5031406;28;20840;-65
2024/02/07 03:45:21;;;;;;;8.50;8.30;;;20.20;57.30;;;;;;5031696;28;20445;-65
2024/02/07 03:47:48;;;;;;;8.43;8.13;;;20.20;57.30;;;;;;5031631;28;20452;-65
2024/02/07 03:50:16;;;;;;;8.60;8.40;;;20.20;57.30;;;;;;5044819;28;20862;-65
2024/02/07 03:52:45;;;;;;;8.20;8.00;;;20.20;57.30;;;;;;5051348;28;20464;-65
2024/02/07 03:55:13;;;;;;;8.37;8.17;;;20.20;57.40;;;;;;5051578;28;20801;-66
2024/02/07 03:57:43;;;;;;;7.83;7.63;;;20.20;57.40;;;;;;5051443;28;20947;-65
2024/02/07 04:00:13;;;;;;;8.00;7.80;;;20.20;57.40;;;;;;5038835;28;20444;-65
2024/02/07 04:02:40;;;;;;;8.73;8.53;;;20.30;57.40;;;;;;5031499;28;20461;-65
2024/02/07 04:05:08;;;;;;;9.00;8.70;;;20.30;57.50;;;;;;5031723;28;20441;-65
2024/02/07 04:07:36;;;;;;;8.80;8.50;;;20.20;57.50;;;;;;5031541;28;20480;-65
2024/02/07 04:10:09;;;;;;;9.03;8.83;;;20.20;57.40;;;;;;5042506;28;20432;-65
2024/02/07 05:15:27;;;;;;;9.30;9.10;;;20.30;57.70;;;;;;5054085;28;20470;-65
2024/02/07 05:17:54;;;;;;;9.77;9.47;;;20.30;57.70;;;;;;5037102;28;20448;-65
2024/02/07 05:20:21;;;;;;;9.83;9.63;;;20.30;57.70;;;;;;5034092;28;20548;-65
2024/02/07 05:22:49;;;;;;;9.40;9.20;;;20.30;57.70;;;;;;5034176;28;20473;-66
2024/02/07 05:25:16;;;;;;;10.57;10.17;;;20.30;57.70;;;;;;5034034;28;20931;-66
2024/02/07 05:27:44;;;;;;;9.50;9.20;;;20.40;57.90;;;;;;5035186;28;20523;-65
2024/02/07 05:30:14;;;;;;;9.80;9.50;;;20.40;57.90;;;;;;5033813;28;20449;-65
2024/02/07 05:32:42;;;;;;;10.53;10.23;;;20.40;58.10;;;;;;5034541;28;20519;-66
2024/02/07 05:35:09;;;;;;;10.20;9.90;;;20.40;58.20;;;;;;5033966;28;20495;-65
2024/02/07 05:37:36;;;;;;;11.70;11.30;;;20.40;58.20;;;;;;5047418;28;20519;-65
2024/02/07 05:40:04;;;;;;;10.03;9.53;;;20.40;58.20;;;;;;5053852;28;20486;-66
2024/02/07 05:42:31;;;;;;;10.27;9.97;;;20.40;58.20;;;;;;5053468;28;20500;-66
2024/02/07 05:44:57;;;;;;;11.10;10.67;;;20.40;58.10;;;;;;5047443;28;20472;-65
2024/02/07 05:47:24;;;;;;;10.30;10.00;;;20.40;58.00;;;;;;5033475;28;20476;-65
2024/02/07 05:49:53;;;;;;;10.13;9.73;;;20.40;58.00;;;;;;5033734;28;20925;-66
2024/02/07 05:52:20;;;;;;;9.17;8.97;;;20.40;57.90;;;;;;5033537;28;20988;-65
2024/02/07 05:54:49;;;;;;;10.20;9.90;;;20.40;57.60;;;;;;5036861;28;20440;-66
2024/02/07 05:57:16;;;;;;;10.07;9.70;;;20.50;57.50;;;;;;5053400;28;20937;-65
2024/02/07 05:59:43;;;;;;;10.17;9.73;;;20.50;57.30;;;;;;5053464;28;20845;-65
2024/02/07 06:02:12;;;;;;;10.60;9.97;;;20.50;57.30;;;;;;5053224;28;20488;-65
2024/02/07 06:04:39;;;;;;;12.47;11.17;;;20.50;57.80;;;;;;5050490;28;21189;-68
2024/02/07 06:07:08;;;;;;;12.17;11.37;;;20.60;60.80;;;;;;5033339;28;20827;-68
2024/02/07 06:09:35;;;;;;;16.33;11.77;;;20.60;63.70;;;;;;5033864;28;20458;-62
2024/02/07 06:12:02;;;;;;;11.73;10.87;;;20.60;65.60;;;;;;5057836;22;20501;-69
2024/02/07 06:14:31;;;;;;;13.80;10.47;;;20.70;64.00;;;;;;5060953;28;20503;-68
2024/02/07 06:16:57;;;;;;;12.30;11.13;;;20.70;65.00;;;;;;5067572;28;20475;-64
2024/02/07 06:19:24;;;;;;;14.10;11.37;;;20.80;65.10;;;;;;5064697;28;20812;-66
2024/02/07 06:21:52;;;;;;;11.50;10.87;;;20.80;65.40;;;;;;5057144;28;20499;-66
2024/02/07 06:24:21;;;;;;;11.77;10.73;;;20.80;64.90;;;;;;5069213;28;20440;-66
2024/02/07 06:26:47;;;;;;;11.97;11.00;;;20.80;64.50;;;;;;5059331;28;20960;-66
2024/02/07 06:29:14;;;;;;;10.87;10.27;;;20.80;64.10;;;;;;5070331;28;20842;-65
2024/02/07 06:31:41;;;;;;;10.30;9.67;;;20.80;63.70;;;;;;5060633;28;20545;-66
2024/02/07 06:34:08;;;;;;;11.13;10.33;;;20.80;63.30;;;;;;5052880;28;20464;-66
2024/02/07 06:36:35;;;;;;;10.27;9.77;;;20.80;62.90;;;;;;5052746;28;20511;-66
2024/02/07 06:39:02;;;;;;;10.50;9.73;;;20.80;62.50;;;;;;5052430;28;20476;-66
2024/02/07 06:41:30;;;;;;;10.53;9.93;;;20.80;62.20;;;;;;5052414;28;20486;-66
2024/02/07 06:43:57;;;;;;;10.47;9.60;;;20.80;61.90;;;;;;5052488;28;20479;-66
2024/02/07 06:46:24;;;;;;;11.10;10.30;;;20.80;61.60;;;;;;5052358;28;20464;-66
2024/02/07 06:48:51;;;;;;;10.70;9.63;;;20.80;61.30;;;;;;5052336;28;20880;-66
2024/02/07 06:51:18;;;;;;;10.87;10.20;;;20.80;61.00;;;;;;5052178;28;20475;-66
2024/02/07 06:53:45;;;;;;;11.07;10.47;;;20.80;60.80;;;;;;5052128;28;20501;-66
2024/02/07 06:56:12;;;;;;;10.73;10.10;;;20.80;60.50;;;;;;5051292;28;20480;-66
2024/02/07 06:58:40;;;;;;;9.80;9.40;;;20.80;60.20;;;;;;5052216;28;20477;-66
2024/02/07 07:01:07;;;;;;;11.60;10.47;;;20.80;60.00;;;;;;5052008;28;20478;-65
2024/02/07 07:03:34;;;;;;;12.37;11.10;;;20.80;59.90;;;;;;5051961;28;20895;-66
2024/02/07 07:06:01;;;;;;;11.83;11.03;;;20.80;59.70;;;;;;5051984;28;20539;-66
2024/02/07 07:08:27;;;;;;;11.40;10.90;;;20.80;59.60;;;;;;5051809;28;20479;-66
2024/02/07 07:10:54;;;;;;;10.67;10.03;;;20.80;59.50;;;;;;5051751;28;20494;-65
2024/02/07 07:13:21;;;;;;;10.77;10.27;;;20.80;59.40;;;;;;5051498;28;20506;-66
2024/02/07 07:15:49;;;;;;;10.80;10.33;;;20.80;59.20;;;;;;5051915;28;20486;-66
2024/02/07 07:18:16;;;;;;;10.60;10.10;;;20.80;59.10;;;;;;5051704;28;20546;-66
2024/02/07 07:20:43;;;;;;;11.20;10.60;;;20.80;59.00;;;;;;5051873;28;20472;-65
2024/02/07 07:23:10;;;;;;;11.90;11.10;;;20.80;58.90;;;;;;5051798;28;20499;-66
2024/02/07 07:25:37;;;;;;;11.30;10.70;;;20.80;58.80;;;;;;5051703;28;20479;-66
2024/02/07 07:28:04;;;;;;;11.30;10.50;;;20.80;58.70;;;;;;5051665;28;20464;-66
2024/02/07 07:30:31;;;;;;;11.17;10.73;;;20.80;58.60;;;;;;5051566;28;20584;-66
2024/02/07 07:33:00;;;;;;;11.00;10.40;;;20.80;58.50;;;;;;5051883;28;20495;-66
2024/02/07 07:35:27;;;;;;;10.50;9.90;;;20.80;58.50;;;;;;5051792;28;20452;-66
2024/02/07 07:37:55;;;;;;;11.30;10.90;;;20.80;58.40;;;;;;5051605;28;20519;-66
2024/02/07 07:40:23;;;;;;;11.03;10.57;;;20.80;58.30;;;;;;5051533;28;20450;-66
2024/02/07 07:42:49;;;;;;;10.83;10.43;;;20.80;58.20;;;;;;5051505;28;21062;-66
2024/02/07 07:45:16;;;;;;;11.53;11.10;;;20.80;58.20;;;;;;5051615;28;20494;-66
2024/02/07 07:47:43;;;;;;;11.73;11.23;;;20.80;58.00;;;;;;5051430;28;20460;-65
2024/02/07 07:50:12;;;;;;;12.43;11.60;;;20.80;57.90;;;;;;5051554;28;20440;-66
2024/02/07 07:52:39;;;;;;;11.70;10.80;;;20.80;57.90;;;;;;5051529;28;20492;-66
2024/02/07 07:55:06;;;;;;;11.30;10.80;;;20.80;57.80;;;;;;5051358;28;20442;-66
2024/02/07 07:57:33;;;;;;;11.73;11.20;;;20.80;57.80;;;;;;5051218;28;20523;-66
2024/02/07 08:00:00;;;;;;;10.97;10.47;;;20.80;57.70;;;;;;5051532;28;20952;-66
2024/02/07 08:02:29;;;;;;;12.33;11.10;;;20.80;57.60;;;;;;5051289;28;20510;-66
2024/02/07 08:04:56;;;;;;;11.83;11.33;;;20.80;57.60;;;;;;5051390;28;20448;-66
2024/02/07 08:07:24;;;;;;;12.43;11.93;;;20.80;57.50;;;;;;5053340;28;20463;-66
2024/02/07 08:09:51;;;;;;;12.53;11.63;;;20.80;57.40;;;;;;5055386;28;20861;-66
2024/02/07 08:12:18;;;;;;;12.03;11.33;;;20.80;57.40;;;;;;5055021;28;20533;-66
2024/02/07 08:14:46;;;;;;;10.80;10.20;;;20.80;57.30;;;;;;5055126;28;20475;-66
2024/02/07 08:17:17;;;;;;;11.67;10.70;;;20.80;57.30;;;;;;5055265;28;20565;-66
2024/02/07 08:19:45;;;;;;;11.60;11.00;;;20.80;57.20;;;;;;5055333;28;20440;-66
2024/02/07 08:22:13;;;;;;;13.13;12.13;;;20.80;57.10;;;;;;5054938;28;20470;-66
2024/02/07 08:24:41;;;;;;;12.70;12.00;;;20.80;57.10;;;;;;5054969;28;20494;-66
2024/02/07 08:27:08;;;;;;;12.27;11.77;;;20.80;57.00;;;;;;5055005;28;20468;-66
2024/02/07 08:29:35;;;;;;;14.63;13.93;;;20.80;57.00;;;;;;5055063;28;20468;-66
2024/02/07 08:32:02;;;;;;;13.03;12.43;;;20.80;56.90;;;;;;5054833;28;20495;-66
2024/02/07 08:34:29;;;;;;;13.40;12.63;;;20.80;56.90;;;;;;5054777;28;20468;-66
2024/02/07 08:36:56;;;;;;;12.63;11.90;;;20.80;56.80;;;;;;5055047;28;20507;-66
2024/02/07 08:39:22;;;;;;;13.53;12.70;;;20.80;56.80;;;;;;5054772;28;20493;-66
2024/02/07 08:41:51;;;;;;;11.77;11.17;;;20.80;56.70;;;;;;5054680;28;20498;-67
2024/02/07 08:44:18;;;;;;;13.50;12.80;;;20.80;56.70;;;;;;5054626;28;20475;-67
2024/02/07 08:46:46;;;;;;;12.27;11.03;;;20.80;56.70;;;;;;5054621;28;20471;-67
2024/02/07 08:49:16;;;;;;;13.40;12.70;;;20.80;56.60;;;;;;5054520;28;20439;-67
2024/02/07 08:51:44;;;;;;;11.93;11.43;;;20.80;56.60;;;;;;5054656;28;20496;-67
2024/02/07 08:54:11;;;;;;;12.70;12.20;;;20.90;56.60;;;;;;5054243;28;20929;-67
2024/02/07 08:56:37;;;;;;;12.43;11.83;;;20.80;56.50;;;;;;5054262;28;20466;-67
2024/02/07 08:59:06;;;;;;;13.60;12.60;;;20.80;56.50;;;;;;5054315;28;20869;-67
2024/02/07 09:01:33;;;;;;;12.80;12.30;;;20.80;56.50;;;;;;5054155;28;20570;-67
2024/02/07 09:03:59;;;;;;;13.00;12.10;;;20.90;57.10;;;;;;5054084;28;20479;-67
2024/02/07 09:06:26;;;;;;;12.63;12.17;;;20.90;56.50;;;;;;5054190;28;20958;-67
2024/02/07 09:08:53;;;;;;;12.20;11.60;;;20.90;56.50;;;;;;5053991;28;20498;-67
2024/02/07 09:11:20;;;;;;;11.40;10.90;;;20.90;56.40;;;;;;5054260;28;20467;-67
2024/02/07 09:13:47;;;;;;;12.73;11.97;;;20.90;56.40;;;;;;5054151;28;20484;-67
2024/02/07 09:16:15;;;;;;;12.17;11.67;;;20.90;56.40;;;;;;5054019;28;20440;-67
2024/02/07 09:18:43;;;;;;;12.70;12.17;;;20.90;56.40;;;;;;5053165;28;20519;-67
2024/02/07 09:21:09;;;;;;;11.17;10.73;;;20.90;56.30;;;;;;5054068;28;20447;-67
2024/02/07 09:23:36;;;;;;;12.83;12.10;;;20.90;56.30;;;;;;5053650;28;20500;-67
2024/02/07 09:26:04;;;;;;;12.40;11.70;;;20.90;56.20;;;;;;5054068;28;20476;-67
2024/02/07 09:28:31;;;;;;;12.30;11.17;;;20.90;56.20;;;;;;5053749;28;20443;-67
2024/02/07 09:30:58;;;;;;;12.63;11.80;;;20.90;56.20;;;;;;5053796;28;20483;-67
2024/02/07 09:33:26;;;;;;;12.60;11.70;;;20.90;56.10;;;;;;5053649;28;20893;-67
2024/02/07 09:35:55;;;;;;;12.67;12.00;;;20.90;56.10;;;;;;5053640;28;20787;-67
2024/02/07 09:38:22;;;;;;;12.33;11.70;;;20.90;56.10;;;;;;5053379;28;20516;-67
2024/02/07 09:40:52;;;;;;;12.07;11.67;;;20.90;56.00;;;;;;5053619;28;20962;-67
2024/02/07 09:43:20;;;;;;;12.40;11.73;;;20.90;56.00;;;;;;5053487;28;20487;-67
2024/02/07 09:45:51;;;;;;;12.33;11.90;;;20.90;56.00;;;;;;5053597;28;20479;-67
2024/02/07 09:48:21;;;;;;;12.30;11.90;;;20.90;56.40;;;;;;5053424;28;20480;-67
2024/02/07 09:50:51;;;;;;;11.90;11.53;;;20.80;55.80;;;;;;5053515;28;20498;-67
2024/02/07 09:53:21;;;;;;;11.90;11.40;;;20.90;55.80;;;;;;5053372;28;20494;-67
2024/02/07 09:55:49;;;;;;;12.47;11.67;;;20.90;55.80;;;;;;5053379;28;20879;-67
2024/02/07 09:58:16;;;;;;;11.03;10.53;;;20.90;55.80;;;;;;5053096;28;20530;-67
2024/02/07 10:00:43;;;;;;;12.47;11.80;;;20.90;55.70;;;;;;5053209;28;20472;-67
2024/02/07 10:03:14;;;;;;;11.20;10.90;;;20.90;55.70;;;;;;5053007;28;20464;-67
2024/02/07 10:05:47;;;;;;;12.20;11.80;;;20.90;55.70;;;;;;5053186;28;20480;-67
2024/02/07 10:08:16;;;;;;;12.67;12.10;;;20.90;55.60;;;;;;5052998;28;20475;-67
2024/02/07 10:10:46;;;;;;;12.70;12.10;;;20.90;55.60;;;;;;5053037;28;20483;-67
2024/02/07 10:13:15;;;;;;;13.63;13.13;;;20.80;55.50;;;;;;5052991;28;20474;-67
2024/02/07 10:15:42;;;;;;;13.90;13.30;;;20.90;55.60;;;;;;5052933;28;20476;-67
2024/02/07 10:18:09;;;;;;;13.40;12.90;;;20.90;55.50;;;;;;5052714;28;20511;-67
2024/02/07 10:20:36;;;;;;;13.00;12.20;;;20.80;55.40;;;;;;5052844;28;20472;-67
2024/02/07 10:23:06;;;;;;;12.60;12.10;;;20.90;55.50;;;;;;5052557;28;20492;-67
2024/02/07 10:25:35;;;;;;;13.33;12.63;;;20.80;55.40;;;;;;5052755;28;20807;-67
2024/02/07 10:28:03;;;;;;;12.77;12.27;;;20.80;55.30;;;;;;5052644;28;20464;-67
2024/02/07 10:30:29;;;;;;;12.27;11.87;;;20.80;55.30;;;;;;5051389;28;20472;-67
2024/02/07 10:32:56;;;;;;;12.17;11.77;;;20.80;55.30;;;;;;5052628;28;20999;-67
2024/02/07 10:35:23;;;;;;;12.50;12.00;;;20.80;55.30;;;;;;5052644;28;20483;-67
2024/02/07 10:37:52;;;;;;;12.00;11.50;;;20.90;55.30;;;;;;5052375;28;20512;-67
2024/02/07 10:40:20;;;;;;;13.47;12.83;;;20.80;55.30;;;;;;5052390;28;20943;-67
2024/02/07 10:42:55;;;;;;;14.10;13.40;;;20.80;55.20;;;;;;5052365;28;20798;-67
2024/02/07 10:45:22;;;;;;;12.03;11.53;;;20.90;55.30;;;;;;5052428;28;20440;-67
2024/02/07 10:47:51;;;;;;;12.30;11.60;;;20.80;55.20;;;;;;5052281;28;20879;-67
2024/02/07 10:50:18;;;;;;;11.63;11.23;;;20.90;55.30;;;;;;5052157;28;20450;-67
2024/02/07 10:52:45;;;;;;;12.43;12.03;;;20.90;55.30;;;;;;5052152;28;20526;-67
2024/02/07 10:55:14;;;;;;;11.60;11.30;;;20.90;55.20;;;;;;5052117;28;20880;-67
2024/02/07 10:57:45;;;;;;;11.70;11.40;;;20.90;55.30;;;;;;5051857;28;20480;-67
2024/02/07 11:00:15;;;;;;;12.43;12.03;;;20.90;55.20;;;;;;5051931;28;20479;-67
2024/02/07 11:02:44;;;;;;;11.90;11.50;;;20.90;55.20;;;;;;5051907;28;20488;-67
2024/02/07 11:05:11;;;;;;;12.23;11.83;;;20.80;55.10;;;;;;5051960;28;20455;-67
2024/02/07 11:07:38;;;;;;;12.13;11.63;;;20.90;55.10;;;;;;5051846;28;20479;-67
2024/02/07 11:10:06;;;;;;;11.90;11.50;;;20.90;55.10;;;;;;5051818;28;20480;-67
2024/02/07 11:12:34;;;;;;;12.03;11.63;;;20.90;55.10;;;;;;5051402;28;20496;-66
2024/02/07 11:15:04;;;;;;;11.97;11.57;;;20.90;55.00;;;;;;5051861;28;20480;-67
2024/02/07 11:17:32;;;;;;;12.30;12.00;;;20.90;55.00;;;;;;5051935;28;20451;-67
2024/02/07 11:19:59;;;;;;;13.10;12.60;;;20.90;55.00;;;;;;5051814;28;20872;-67
2024/02/07 11:22:31;;;;;;;12.77;12.37;;;20.90;55.00;;;;;;5051735;28;20499;-67
2024/02/07 11:25:00;;;;;;;12.70;12.20;;;20.80;54.90;;;;;;5051709;28;20479;-67
2024/02/07 11:27:26;;;;;;;13.00;12.60;;;20.90;54.90;;;;;;5051655;28;20468;-67
2024/02/07 11:29:55;;;;;;;12.63;12.30;;;20.90;54.90;;;;;;5051761;28;20911;-67
2024/02/07 11:32:22;;;;;;;12.70;12.40;;;20.80;54.80;;;;;;5051674;28;20838;-67
2024/02/07 11:34:54;;;;;;;12.50;12.10;;;20.80;54.80;;;;;;5051564;28;20468;-65
2024/02/07 11:37:21;;;;;;;12.17;11.77;;;20.80;54.70;;;;;;5051736;28;20919;-65
2024/02/07 11:39:50;;;;;;;12.70;12.30;;;20.80;54.70;;;;;;5051533;28;20511;-65
2024/02/07 11:42:19;;;;;;;12.07;11.67;;;20.80;54.70;;;;;;5051021;28;20991;-65
2024/02/07 11:44:53;;;;;;;12.90;12.40;;;20.80;54.70;;;;;;5051437;28;20919;-65
2024/02/07 11:47:27;;;;;;;12.80;12.40;;;20.80;54.60;;;;;;5051479;28;20937;-65
2024/02/07 11:50:02;;;;;;;12.50;11.90;;;20.80;54.60;;;;;;5051491;28;20501;-65
2024/02/07 11:52:29;;;;;;;11.93;11.53;;;20.80;54.60;;;;;;5051334;28;20468;-65
2024/02/07 11:55:03;;;;;;;11.73;11.43;;;20.80;54.60;;;;;;5051355;28;20543;-65
2024/02/07 11:57:31;;;;;;;12.20;11.80;;;20.80;54.50;;;;;;5051365;28;20879;-65
2024/02/07 12:00:00;;;;;;;12.00;11.60;;;20.80;54.50;;;;;;5051248;28;20447;-65
2024/02/07 12:02:27;;;;;;;11.77;11.47;;;20.80;54.50;;;;;;5051298;28;20474;-67
2024/02/07 12:04:55;;;;;;;12.03;11.70;;;20.80;54.50;;;;;;5051171;28;20530;-67
2024/02/07 12:07:23;;;;;;;12.57;12.07;;;20.80;54.50;;;;;;5051401;28;20476;-67
2024/02/07 12:09:51;;;;;;;12.07;11.70;;;20.80;54.50;;;;;;5051232;28;20488;-67
2024/02/07 12:12:18;;;;;;;11.77;11.37;;;20.80;54.50;;;;;;5065804;22;20515;-69
2024/02/07 12:14:47;;;;;;;12.23;11.83;;;20.80;54.50;;;;;;5043499;28;20471;-69
2024/02/07 12:17:15;;;;;;;12.10;11.60;;;20.80;54.50;;;;;;5043429;28;20440;-69
2024/02/07 12:19:44;;;;;;;12.10;11.73;;;20.80;54.70;;;;;;5040877;28;20497;-69
2024/02/07 12:22:16;;;;;;;11.73;11.33;;;20.80;54.50;;;;;;5040312;28;20500;-69
2024/02/07 12:24:45;;;;;;;12.23;11.73;;;20.80;54.40;;;;;;5039865;28;20957;-68
2024/02/07 12:27:14;;;;;;;12.20;11.60;;;20.80;54.40;;;;;;5039659;28;20515;-67
2024/02/07 12:29:47;;;;;;;11.87;11.53;;;20.80;54.40;;;;;;5043057;28;20433;-69
2024/02/07 12:32:14;;;;;;;12.03;11.73;;;20.80;54.40;;;;;;5043160;28;20479;-69
2024/02/07 12:34:41;;;;;;;11.60;11.20;;;20.80;54.40;;;;;;5039967;28;20886;-68
2024/02/07 12:37:09;;;;;;;11.87;11.47;;;20.80;54.40;;;;;;5040245;28;20533;-69
2024/02/07 12:39:36;;;;;;;11.57;11.17;;;20.80;54.30;;;;;;5047872;28;20508;-69
2024/02/07 12:42:13;;;;;;;11.50;11.20;;;20.80;54.30;;;;;;5039719;28;20467;-69
2024/02/07 12:44:41;;;;;;;11.93;11.53;;;20.80;54.30;;;;;;5039823;28;20461;-69
2024/02/07 12:47:08;;;;;;;11.40;11.10;;;20.80;54.30;;;;;;5039879;28;20469;-69
2024/02/07 12:49:36;;;;;;;11.70;11.40;;;20.80;54.30;;;;;;5048101;28;20465;-69
2024/02/07 12:52:03;;;;;;;11.87;11.37;;;20.80;54.30;;;;;;5039838;28;22143;-68
2024/02/07 12:54:30;;;;;;;12.13;11.83;;;20.80;54.20;;;;;;5044120;28;20441;-69
2024/02/07 12:56:57;;;;;;;12.87;12.03;;;20.80;54.20;;;;;;5046626;28;20848;-68
2024/02/07 12:59:30;;;;;;;14.03;13.53;;;20.80;54.20;;;;;;5044595;28;20503;-68
2024/02/07 13:01:57;;;;;;;11.33;11.03;;;20.80;54.20;;;;;;5043038;28;20488;-68
2024/02/07 13:04:24;;;;;;;12.57;12.17;;;20.80;54.10;;;;;;5044327;28;20499;-68
2024/02/07 13:06:51;;;;;;;11.77;11.47;;;20.80;54.10;;;;;;5046286;28;20473;-69
2024/02/07 13:09:18;;;;;;;11.70;11.40;;;20.80;54.10;;;;;;5045295;28;20468;-69
2024/02/07 13:11:45;;;;;;;11.93;11.63;;;20.80;54.10;;;;;;5042667;28;20472;-69
2024/02/07 13:14:11;;;;;;;11.70;11.40;;;20.80;54.10;;;;;;5043025;28;20488;-69
2024/02/07 13:16:40;;;;;;;12.10;11.80;;;20.80;54.00;;;;;;5051300;28;20473;-68
2024/02/07 13:19:07;;;;;;;11.67;11.37;;;20.80;54.00;;;;;;5043274;28;20504;-68
2024/02/07 13:21:33;;;;;;;12.37;12.07;;;20.80;54.00;;;;;;5045918;28;20477;-69
2024/02/07 13:24:00;;;;;;;12.20;11.90;;;20.80;54.20;;;;;;5046226;28;20496;-68
2024/02/07 13:26:28;;;;;;;12.13;11.73;;;20.80;53.90;;;;;;5044062;28;20483;-69
2024/02/07 13:28:54;;;;;;;12.80;12.40;;;20.80;53.90;;;;;;5042217;28;20447;-68
2024/02/07 13:31:21;;;;;;;11.73;11.43;;;20.80;53.90;;;;;;5043585;28;20445;-68
2024/02/07 13:33:50;;;;;;;12.00;11.70;;;20.80;53.90;;;;;;5046699;28;21018;-68
2024/02/07 13:36:16;;;;;;;11.97;11.67;;;20.80;53.90;;;;;;5045759;28;20468;-67
2024/02/07 13:38:43;;;;;;;11.60;11.30;;;20.80;53.90;;;;;;5042240;28;20504;-68
2024/02/07 13:41:10;;;;;;;12.23;11.73;;;20.80;53.90;;;;;;5042685;28;20476;-69